sensor_id;sensor_type;location;lat;lon;timestamp;P1;durP1;ratioP1;P2;durP2;ratioP2
15748;SDS011;7976;52.526;13.326;2022-10-16T00:01:26;6.03;;;2.33;;
15748;SDS011;7976;52.526;13.326;2022-10-16T00:03:55;7.45;;;2.55;;
15748;SDS011;7976;52.526;13.326;2022-10-16T00:06:26;9.85;;;3.35;;
15748;SDS011;7976;52.526;13.326;2022-10-16T00:08:55;7.38;;;2.35;;
15748;SDS011;7976;52.526;13.326;2022-10-16T00:11:23;4.50;;;1.90;;
15748;SDS011;7976;52.526;13.326;2022-10-16T00:13:54;7.95;;;3.20;;
15748;SDS011;7976;52.526;13.326;2022-10-16T00:16:24;7.90;;;2.75;;
15748;SDS011;7976;52.526;13.326;2022-10-16T00:18:53;5.95;;;2.42;;
15748;SDS011;7976;52.526;13.326;2022-10-16T00:21:22;6.60;;;2.40;;
15748;SDS011;7976;52.526;13.326;2022-10-16T00:23:52;5.65;;;2.10;;
15748;SDS011;7976;52.526;13.326;2022-10-16T00:26:22;6.25;;;2.10;;
15748;SDS011;7976;52.526;13.326;2022-10-16T00:28:50;6.22;;;2.20;;
15748;SDS011;7976;52.526;13.326;2022-10-16T00:31:19;6.93;;;2.00;;
15748;SDS011;7976;52.526;13.326;2022-10-16T00:33:48;6.90;;;2.58;;
15748;SDS011;7976;52.526;13.326;2022-10-16T00:36:17;6.00;;;2.20;;
15748;SDS011;7976;52.526;13.326;2022-10-16T00:38:46;6.93;;;2.20;;
15748;SDS011;7976;52.526;13.326;2022-10-16T00:41:19;5.35;;;1.90;;
15748;SDS011;7976;52.526;13.326;2022-10-16T00:43:48;5.45;;;1.90;;
15748;SDS011;7976;52.526;13.326;2022-10-16T00:46:17;7.07;;;1.95;;
15748;SDS011;7976;52.526;13.326;2022-10-16T00:48:49;4.90;;;1.95;;
15748;SDS011;7976;52.526;13.326;2022-10-16T00:51:24;5.07;;;1.95;;
15748;SDS011;7976;52.526;13.326;2022-10-16T00:53:56;7.47;;;1.98;;
15748;SDS011;7976;52.526;13.326;2022-10-16T00:56:24;8.40;;;2.20;;
15748;SDS011;7976;52.526;13.326;2022-10-16T00:58:51;4.68;;;1.80;;
15748;SDS011;7976;52.526;13.326;2022-10-16T01:01:19;5.45;;;2.10;;
15748;SDS011;7976;52.526;13.326;2022-10-16T01:03:45;7.18;;;2.10;;
15748;SDS011;7976;52.526;13.326;2022-10-16T01:06:18;5.95;;;1.90;;
15748;SDS011;7976;52.526;13.326;2022-10-16T01:08:54;6.65;;;2.38;;
15748;SDS011;7976;52.526;13.326;2022-10-16T01:11:38;16.35;;;7.85;;
15748;SDS011;7976;52.526;13.326;2022-10-16T01:14:15;11.98;;;5.20;;
15748;SDS011;7976;52.526;13.326;2022-10-16T01:16:57;12.80;;;4.85;;
15748;SDS011;7976;52.526;13.326;2022-10-16T01:22:33;9.35;;;3.90;;
15748;SDS011;7976;52.526;13.326;2022-10-16T01:25:11;9.90;;;4.03;;
15748;SDS011;7976;52.526;13.326;2022-10-16T01:27:49;7.90;;;2.88;;
15748;SDS011;7976;52.526;13.326;2022-10-16T01:30:18;5.55;;;1.90;;
15748;SDS011;7976;52.526;13.326;2022-10-16T01:32:52;7.10;;;2.28;;
15748;SDS011;7976;52.526;13.326;2022-10-16T01:35:27;6.40;;;2.15;;
15748;SDS011;7976;52.526;13.326;2022-10-16T01:38:00;5.80;;;1.98;;
15748;SDS011;7976;52.526;13.326;2022-10-16T01:40:34;5.30;;;2.05;;
15748;SDS011;7976;52.526;13.326;2022-10-16T01:43:09;4.95;;;2.00;;
15748;SDS011;7976;52.526;13.326;2022-10-16T01:45:44;5.88;;;2.03;;
15748;SDS011;7976;52.526;13.326;2022-10-16T01:48:12;7.85;;;2.22;;
15748;SDS011;7976;52.526;13.326;2022-10-16T01:50:44;5.60;;;2.17;;
15748;SDS011;7976;52.526;13.326;2022-10-16T01:53:18;6.53;;;1.90;;
15748;SDS011;7976;52.526;13.326;2022-10-16T01:55:48;6.55;;;2.40;;
15748;SDS011;7976;52.526;13.326;2022-10-16T01:58:20;6.63;;;2.20;;
15748;SDS011;7976;52.526;13.326;2022-10-16T02:00:51;5.20;;;1.88;;
15748;SDS011;7976;52.526;13.326;2022-10-16T02:03:22;4.75;;;1.67;;
15748;SDS011;7976;52.526;13.326;2022-10-16T02:05:49;5.45;;;1.90;;
15748;SDS011;7976;52.526;13.326;2022-10-16T02:08:20;4.18;;;1.80;;
15748;SDS011;7976;52.526;13.326;2022-10-16T02:10:50;7.00;;;1.98;;
15748;SDS011;7976;52.526;13.326;2022-10-16T02:13:18;5.38;;;1.70;;
15748;SDS011;7976;52.526;13.326;2022-10-16T02:15:53;6.10;;;2.03;;
15748;SDS011;7976;52.526;13.326;2022-10-16T02:18:20;5.57;;;2.10;;
15748;SDS011;7976;52.526;13.326;2022-10-16T02:20:48;5.03;;;1.90;;
15748;SDS011;7976;52.526;13.326;2022-10-16T02:23:23;4.53;;;1.67;;
15748;SDS011;7976;52.526;13.326;2022-10-16T02:26:01;6.22;;;2.30;;
15748;SDS011;7976;52.526;13.326;2022-10-16T02:28:35;4.95;;;1.80;;
15748;SDS011;7976;52.526;13.326;2022-10-16T02:31:11;3.92;;;1.70;;
15748;SDS011;7976;52.526;13.326;2022-10-16T02:33:44;6.38;;;2.10;;
15748;SDS011;7976;52.526;13.326;2022-10-16T02:36:12;4.78;;;1.80;;
15748;SDS011;7976;52.526;13.326;2022-10-16T02:38:39;6.78;;;2.30;;
15748;SDS011;7976;52.526;13.326;2022-10-16T02:41:07;4.63;;;1.70;;
15748;SDS011;7976;52.526;13.326;2022-10-16T02:43:36;4.10;;;1.70;;
15748;SDS011;7976;52.526;13.326;2022-10-16T02:46:02;4.05;;;1.85;;
15748;SDS011;7976;52.526;13.326;2022-10-16T02:48:29;4.68;;;1.88;;
15748;SDS011;7976;52.526;13.326;2022-10-16T02:50:56;5.68;;;1.90;;
15748;SDS011;7976;52.526;13.326;2022-10-16T02:53:22;4.03;;;1.80;;
15748;SDS011;7976;52.526;13.326;2022-10-16T02:55:49;5.30;;;1.90;;
15748;SDS011;7976;52.526;13.326;2022-10-16T02:58:16;4.63;;;1.80;;
15748;SDS011;7976;52.526;13.326;2022-10-16T03:00:44;5.07;;;2.15;;
15748;SDS011;7976;52.526;13.326;2022-10-16T03:03:11;5.40;;;1.80;;
15748;SDS011;7976;52.526;13.326;2022-10-16T03:05:38;5.45;;;1.88;;
15748;SDS011;7976;52.526;13.326;2022-10-16T03:08:05;5.43;;;2.03;;
15748;SDS011;7976;52.526;13.326;2022-10-16T03:10:31;5.32;;;1.80;;
15748;SDS011;7976;52.526;13.326;2022-10-16T03:12:58;5.10;;;1.90;;
15748;SDS011;7976;52.526;13.326;2022-10-16T03:15:25;4.95;;;1.70;;
15748;SDS011;7976;52.526;13.326;2022-10-16T03:17:54;5.75;;;1.90;;
15748;SDS011;7976;52.526;13.326;2022-10-16T03:20:23;4.63;;;1.80;;
15748;SDS011;7976;52.526;13.326;2022-10-16T03:22:50;4.88;;;1.90;;
15748;SDS011;7976;52.526;13.326;2022-10-16T03:25:17;7.75;;;1.92;;
15748;SDS011;7976;52.526;13.326;2022-10-16T03:27:44;5.57;;;1.80;;
15748;SDS011;7976;52.526;13.326;2022-10-16T03:30:11;4.95;;;1.92;;
15748;SDS011;7976;52.526;13.326;2022-10-16T03:32:38;5.60;;;2.00;;
15748;SDS011;7976;52.526;13.326;2022-10-16T03:35:07;5.82;;;2.20;;
15748;SDS011;7976;52.526;13.326;2022-10-16T03:37:34;4.88;;;2.00;;
15748;SDS011;7976;52.526;13.326;2022-10-16T03:40:01;5.97;;;2.00;;
15748;SDS011;7976;52.526;13.326;2022-10-16T03:42:29;5.15;;;2.00;;
15748;SDS011;7976;52.526;13.326;2022-10-16T03:44:56;5.10;;;1.92;;
15748;SDS011;7976;52.526;13.326;2022-10-16T03:47:22;5.70;;;1.95;;
15748;SDS011;7976;52.526;13.326;2022-10-16T03:49:49;5.88;;;2.00;;
15748;SDS011;7976;52.526;13.326;2022-10-16T03:52:17;5.60;;;2.10;;
15748;SDS011;7976;52.526;13.326;2022-10-16T03:54:44;6.80;;;2.33;;
15748;SDS011;7976;52.526;13.326;2022-10-16T03:57:11;8.85;;;3.70;;
15748;SDS011;7976;52.526;13.326;2022-10-16T03:59:38;8.25;;;3.28;;
15748;SDS011;7976;52.526;13.326;2022-10-16T04:02:04;9.43;;;3.17;;
15748;SDS011;7976;52.526;13.326;2022-10-16T04:04:31;7.07;;;2.58;;
15748;SDS011;7976;52.526;13.326;2022-10-16T04:06:58;6.93;;;2.40;;
15748;SDS011;7976;52.526;13.326;2022-10-16T04:09:26;7.10;;;2.55;;
15748;SDS011;7976;52.526;13.326;2022-10-16T04:11:53;7.53;;;2.70;;
15748;SDS011;7976;52.526;13.326;2022-10-16T04:14:19;6.57;;;2.30;;
15748;SDS011;7976;52.526;13.326;2022-10-16T04:16:46;5.53;;;2.10;;
15748;SDS011;7976;52.526;13.326;2022-10-16T04:19:13;6.38;;;2.38;;
15748;SDS011;7976;52.526;13.326;2022-10-16T04:21:40;5.20;;;2.10;;
15748;SDS011;7976;52.526;13.326;2022-10-16T04:24:06;7.03;;;2.20;;
15748;SDS011;7976;52.526;13.326;2022-10-16T04:26:35;7.45;;;2.60;;
15748;SDS011;7976;52.526;13.326;2022-10-16T04:29:01;6.65;;;2.25;;
15748;SDS011;7976;52.526;13.326;2022-10-16T04:31:28;6.30;;;2.40;;
15748;SDS011;7976;52.526;13.326;2022-10-16T04:33:55;5.57;;;1.90;;
15748;SDS011;7976;52.526;13.326;2022-10-16T04:36:22;5.70;;;2.00;;
15748;SDS011;7976;52.526;13.326;2022-10-16T04:38:49;6.32;;;1.92;;
15748;SDS011;7976;52.526;13.326;2022-10-16T04:41:15;5.88;;;2.20;;
15748;SDS011;7976;52.526;13.326;2022-10-16T04:43:44;4.95;;;2.03;;
15748;SDS011;7976;52.526;13.326;2022-10-16T04:46:10;7.95;;;2.30;;
15748;SDS011;7976;52.526;13.326;2022-10-16T04:48:37;6.57;;;2.00;;
15748;SDS011;7976;52.526;13.326;2022-10-16T04:51:04;6.53;;;2.03;;
15748;SDS011;7976;52.526;13.326;2022-10-16T04:53:31;6.57;;;2.28;;
15748;SDS011;7976;52.526;13.326;2022-10-16T04:55:58;6.88;;;2.17;;
15748;SDS011;7976;52.526;13.326;2022-10-16T04:58:25;5.18;;;2.00;;
15748;SDS011;7976;52.526;13.326;2022-10-16T05:00:53;5.68;;;2.42;;
15748;SDS011;7976;52.526;13.326;2022-10-16T05:03:20;5.88;;;2.40;;
15748;SDS011;7976;52.526;13.326;2022-10-16T05:05:46;5.57;;;2.10;;
15748;SDS011;7976;52.526;13.326;2022-10-16T05:08:13;7.65;;;3.10;;
15748;SDS011;7976;52.526;13.326;2022-10-16T05:10:42;6.53;;;2.40;;
15748;SDS011;7976;52.526;13.326;2022-10-16T05:13:10;6.82;;;2.15;;
15748;SDS011;7976;52.526;13.326;2022-10-16T05:15:37;5.22;;;2.17;;
15748;SDS011;7976;52.526;13.326;2022-10-16T05:18:05;6.07;;;2.20;;
15748;SDS011;7976;52.526;13.326;2022-10-16T05:20:32;5.70;;;2.17;;
15748;SDS011;7976;52.526;13.326;2022-10-16T05:22:58;6.68;;;2.13;;
15748;SDS011;7976;52.526;13.326;2022-10-16T05:25:25;5.68;;;2.10;;
15748;SDS011;7976;52.526;13.326;2022-10-16T05:27:52;5.45;;;2.13;;
15748;SDS011;7976;52.526;13.326;2022-10-16T05:30:19;6.75;;;2.00;;
15748;SDS011;7976;52.526;13.326;2022-10-16T05:32:46;5.50;;;2.15;;
15748;SDS011;7976;52.526;13.326;2022-10-16T05:35:15;7.63;;;2.08;;
15748;SDS011;7976;52.526;13.326;2022-10-16T05:37:43;5.53;;;1.98;;
15748;SDS011;7976;52.526;13.326;2022-10-16T05:40:10;5.80;;;2.00;;
15748;SDS011;7976;52.526;13.326;2022-10-16T05:42:38;8.05;;;2.20;;
15748;SDS011;7976;52.526;13.326;2022-10-16T05:45:06;7.10;;;2.47;;
15748;SDS011;7976;52.526;13.326;2022-10-16T05:47:36;4.88;;;1.88;;
15748;SDS011;7976;52.526;13.326;2022-10-16T05:50:03;5.68;;;2.15;;
15748;SDS011;7976;52.526;13.326;2022-10-16T05:52:32;6.43;;;2.15;;
15748;SDS011;7976;52.526;13.326;2022-10-16T05:54:58;6.38;;;2.00;;
15748;SDS011;7976;52.526;13.326;2022-10-16T05:57:25;6.75;;;2.13;;
15748;SDS011;7976;52.526;13.326;2022-10-16T05:59:52;6.97;;;2.17;;
15748;SDS011;7976;52.526;13.326;2022-10-16T06:02:18;5.80;;;2.00;;
15748;SDS011;7976;52.526;13.326;2022-10-16T06:04:45;5.90;;;2.05;;
15748;SDS011;7976;52.526;13.326;2022-10-16T06:07:12;7.25;;;1.85;;
15748;SDS011;7976;52.526;13.326;2022-10-16T06:09:40;5.22;;;2.22;;
15748;SDS011;7976;52.526;13.326;2022-10-16T06:12:07;6.53;;;1.90;;
15748;SDS011;7976;52.526;13.326;2022-10-16T06:14:33;5.32;;;1.92;;
15748;SDS011;7976;52.526;13.326;2022-10-16T06:17:00;7.72;;;1.98;;
15748;SDS011;7976;52.526;13.326;2022-10-16T06:19:27;6.45;;;2.20;;
15748;SDS011;7976;52.526;13.326;2022-10-16T06:21:53;7.88;;;2.13;;
15748;SDS011;7976;52.526;13.326;2022-10-16T06:24:22;7.28;;;1.90;;
15748;SDS011;7976;52.526;13.326;2022-10-16T06:26:51;9.18;;;2.22;;
15748;SDS011;7976;52.526;13.326;2022-10-16T06:29:17;7.38;;;2.20;;
15748;SDS011;7976;52.526;13.326;2022-10-16T06:31:44;8.13;;;2.30;;
15748;SDS011;7976;52.526;13.326;2022-10-16T06:34:11;6.18;;;1.90;;
15748;SDS011;7976;52.526;13.326;2022-10-16T06:36:38;4.97;;;1.83;;
15748;SDS011;7976;52.526;13.326;2022-10-16T06:39:06;6.05;;;2.10;;
15748;SDS011;7976;52.526;13.326;2022-10-16T06:41:33;4.97;;;2.03;;
15748;SDS011;7976;52.526;13.326;2022-10-16T06:44:13;5.47;;;2.08;;
15748;SDS011;7976;52.526;13.326;2022-10-16T06:46:40;6.70;;;2.25;;
15748;SDS011;7976;52.526;13.326;2022-10-16T06:49:06;5.43;;;1.98;;
15748;SDS011;7976;52.526;13.326;2022-10-16T06:51:33;8.65;;;2.38;;
15748;SDS011;7976;52.526;13.326;2022-10-16T06:54:01;5.90;;;1.90;;
15748;SDS011;7976;52.526;13.326;2022-10-16T06:56:28;6.00;;;2.10;;
15748;SDS011;7976;52.526;13.326;2022-10-16T06:58:56;7.15;;;2.33;;
15748;SDS011;7976;52.526;13.326;2022-10-16T07:01:25;6.35;;;2.10;;
15748;SDS011;7976;52.526;13.326;2022-10-16T07:03:53;6.40;;;2.40;;
15748;SDS011;7976;52.526;13.326;2022-10-16T07:06:21;6.13;;;2.03;;
15748;SDS011;7976;52.526;13.326;2022-10-16T07:08:51;7.22;;;2.20;;
15748;SDS011;7976;52.526;13.326;2022-10-16T07:11:19;5.88;;;1.95;;
15748;SDS011;7976;52.526;13.326;2022-10-16T07:13:48;5.78;;;2.00;;
15748;SDS011;7976;52.526;13.326;2022-10-16T07:16:17;6.00;;;2.00;;
15748;SDS011;7976;52.526;13.326;2022-10-16T07:18:48;5.68;;;2.00;;
15748;SDS011;7976;52.526;13.326;2022-10-16T07:21:17;4.88;;;1.70;;
15748;SDS011;7976;52.526;13.326;2022-10-16T07:23:49;7.53;;;2.00;;
15748;SDS011;7976;52.526;13.326;2022-10-16T07:26:17;7.05;;;2.17;;
15748;SDS011;7976;52.526;13.326;2022-10-16T07:28:44;7.85;;;2.55;;
15748;SDS011;7976;52.526;13.326;2022-10-16T07:31:11;6.00;;;2.20;;
15748;SDS011;7976;52.526;13.326;2022-10-16T07:33:40;4.32;;;1.77;;
15748;SDS011;7976;52.526;13.326;2022-10-16T07:36:10;5.22;;;1.90;;
15748;SDS011;7976;52.526;13.326;2022-10-16T07:38:38;5.20;;;1.77;;
15748;SDS011;7976;52.526;13.326;2022-10-16T07:41:05;5.55;;;1.90;;
15748;SDS011;7976;52.526;13.326;2022-10-16T07:43:35;6.43;;;1.90;;
15748;SDS011;7976;52.526;13.326;2022-10-16T07:46:02;6.50;;;1.95;;
15748;SDS011;7976;52.526;13.326;2022-10-16T07:48:30;4.07;;;1.70;;
15748;SDS011;7976;52.526;13.326;2022-10-16T07:50:59;5.60;;;2.63;;
15748;SDS011;7976;52.526;13.326;2022-10-16T07:53:29;5.70;;;1.77;;
15748;SDS011;7976;52.526;13.326;2022-10-16T07:55:57;4.63;;;1.80;;
15748;SDS011;7976;52.526;13.326;2022-10-16T07:58:25;5.78;;;1.88;;
15748;SDS011;7976;52.526;13.326;2022-10-16T08:00:52;4.85;;;1.80;;
15748;SDS011;7976;52.526;13.326;2022-10-16T08:03:19;4.68;;;1.75;;
15748;SDS011;7976;52.526;13.326;2022-10-16T08:05:46;6.40;;;2.15;;
15748;SDS011;7976;52.526;13.326;2022-10-16T08:08:13;5.35;;;1.90;;
15748;SDS011;7976;52.526;13.326;2022-10-16T08:10:42;5.28;;;1.67;;
15748;SDS011;7976;52.526;13.326;2022-10-16T08:13:09;3.00;;;1.40;;
15748;SDS011;7976;52.526;13.326;2022-10-16T08:15:37;5.78;;;1.90;;
15748;SDS011;7976;52.526;13.326;2022-10-16T08:18:04;5.93;;;1.90;;
15748;SDS011;7976;52.526;13.326;2022-10-16T08:20:32;7.10;;;1.85;;
15748;SDS011;7976;52.526;13.326;2022-10-16T08:22:59;4.70;;;1.65;;
15748;SDS011;7976;52.526;13.326;2022-10-16T08:25:27;5.05;;;1.90;;
15748;SDS011;7976;52.526;13.326;2022-10-16T08:27:55;5.15;;;1.88;;
15748;SDS011;7976;52.526;13.326;2022-10-16T08:30:23;6.70;;;2.05;;
15748;SDS011;7976;52.526;13.326;2022-10-16T08:32:50;6.20;;;1.83;;
15748;SDS011;7976;52.526;13.326;2022-10-16T08:35:17;7.38;;;2.35;;
15748;SDS011;7976;52.526;13.326;2022-10-16T08:37:44;6.75;;;2.28;;
15748;SDS011;7976;52.526;13.326;2022-10-16T08:40:13;7.32;;;2.47;;
15748;SDS011;7976;52.526;13.326;2022-10-16T08:42:48;8.85;;;2.22;;
15748;SDS011;7976;52.526;13.326;2022-10-16T08:45:39;7.75;;;2.95;;
15748;SDS011;7976;52.526;13.326;2022-10-16T08:48:21;6.97;;;2.38;;
15748;SDS011;7976;52.526;13.326;2022-10-16T08:50:55;7.05;;;2.25;;
15748;SDS011;7976;52.526;13.326;2022-10-16T08:53:24;6.93;;;2.47;;
15748;SDS011;7976;52.526;13.326;2022-10-16T08:56:01;7.53;;;2.95;;
15748;SDS011;7976;52.526;13.326;2022-10-16T08:58:29;6.95;;;2.47;;
15748;SDS011;7976;52.526;13.326;2022-10-16T09:00:58;5.32;;;2.05;;
15748;SDS011;7976;52.526;13.326;2022-10-16T09:03:38;5.63;;;2.10;;
15748;SDS011;7976;52.526;13.326;2022-10-16T09:06:25;8.13;;;1.98;;
15748;SDS011;7976;52.526;13.326;2022-10-16T09:09:15;5.35;;;1.70;;
15748;SDS011;7976;52.526;13.326;2022-10-16T09:12:04;6.43;;;2.20;;
15748;SDS011;7976;52.526;13.326;2022-10-16T09:14:47;6.40;;;1.73;;
15748;SDS011;7976;52.526;13.326;2022-10-16T09:17:30;5.13;;;2.00;;
15748;SDS011;7976;52.526;13.326;2022-10-16T09:20:13;5.63;;;1.77;;
15748;SDS011;7976;52.526;13.326;2022-10-16T09:22:52;6.82;;;1.77;;
15748;SDS011;7976;52.526;13.326;2022-10-16T09:25:27;5.05;;;1.92;;
15748;SDS011;7976;52.526;13.326;2022-10-16T09:27:54;7.03;;;1.90;;
15748;SDS011;7976;52.526;13.326;2022-10-16T09:30:23;5.45;;;1.80;;
15748;SDS011;7976;52.526;13.326;2022-10-16T09:32:55;5.07;;;1.77;;
15748;SDS011;7976;52.526;13.326;2022-10-16T09:35:27;4.35;;;1.70;;
15748;SDS011;7976;52.526;13.326;2022-10-16T09:38:01;5.45;;;1.60;;
15748;SDS011;7976;52.526;13.326;2022-10-16T09:40:30;7.75;;;1.98;;
15748;SDS011;7976;52.526;13.326;2022-10-16T09:43:01;4.35;;;1.67;;
15748;SDS011;7976;52.526;13.326;2022-10-16T09:45:55;3.50;;;1.45;;
15748;SDS011;7976;52.526;13.326;2022-10-16T09:48:25;7.20;;;2.83;;
15748;SDS011;7976;52.526;13.326;2022-10-16T09:51:00;6.00;;;2.13;;
15748;SDS011;7976;52.526;13.326;2022-10-16T09:53:40;7.55;;;1.80;;
15748;SDS011;7976;52.526;13.326;2022-10-16T09:56:09;5.80;;;1.88;;
15748;SDS011;7976;52.526;13.326;2022-10-16T09:58:49;5.03;;;1.70;;
15748;SDS011;7976;52.526;13.326;2022-10-16T10:01:20;5.50;;;1.75;;
15748;SDS011;7976;52.526;13.326;2022-10-16T10:03:55;7.40;;;2.40;;
15748;SDS011;7976;52.526;13.326;2022-10-16T10:06:28;6.78;;;2.00;;
15748;SDS011;7976;52.526;13.326;2022-10-16T10:09:00;6.15;;;1.90;;
15748;SDS011;7976;52.526;13.326;2022-10-16T10:11:42;4.93;;;1.70;;
15748;SDS011;7976;52.526;13.326;2022-10-16T10:14:17;6.38;;;1.90;;
15748;SDS011;7976;52.526;13.326;2022-10-16T10:16:51;5.45;;;1.60;;
15748;SDS011;7976;52.526;13.326;2022-10-16T10:19:28;5.88;;;1.88;;
15748;SDS011;7976;52.526;13.326;2022-10-16T10:21:55;7.20;;;2.47;;
15748;SDS011;7976;52.526;13.326;2022-10-16T10:24:24;7.05;;;2.53;;
15748;SDS011;7976;52.526;13.326;2022-10-16T10:26:54;7.25;;;2.13;;
15748;SDS011;7976;52.526;13.326;2022-10-16T10:29:38;4.40;;;1.67;;
15748;SDS011;7976;52.526;13.326;2022-10-16T10:32:22;4.47;;;1.70;;
15748;SDS011;7976;52.526;13.326;2022-10-16T10:35:05;5.38;;;1.90;;
15748;SDS011;7976;52.526;13.326;2022-10-16T10:37:51;5.43;;;2.10;;
15748;SDS011;7976;52.526;13.326;2022-10-16T10:40:38;4.75;;;1.83;;
15748;SDS011;7976;52.526;13.326;2022-10-16T10:43:21;10.23;;;3.28;;
15748;SDS011;7976;52.526;13.326;2022-10-16T10:46:09;8.25;;;2.63;;
15748;SDS011;7976;52.526;13.326;2022-10-16T10:48:51;7.50;;;2.83;;
15748;SDS011;7976;52.526;13.326;2022-10-16T10:51:36;6.80;;;1.90;;
15748;SDS011;7976;52.526;13.326;2022-10-16T10:54:19;6.85;;;1.90;;
15748;SDS011;7976;52.526;13.326;2022-10-16T10:56:56;6.03;;;2.22;;
15748;SDS011;7976;52.526;13.326;2022-10-16T10:59:32;9.57;;;2.08;;
15748;SDS011;7976;52.526;13.326;2022-10-16T11:02:19;5.57;;;1.88;;
15748;SDS011;7976;52.526;13.326;2022-10-16T11:05:07;5.93;;;1.90;;
15748;SDS011;7976;52.526;13.326;2022-10-16T11:07:54;5.20;;;1.50;;
15748;SDS011;7976;52.526;13.326;2022-10-16T11:10:27;4.93;;;1.80;;
15748;SDS011;7976;52.526;13.326;2022-10-16T11:13:06;13.27;;;3.30;;
15748;SDS011;7976;52.526;13.326;2022-10-16T11:15:48;9.48;;;2.92;;
15748;SDS011;7976;52.526;13.326;2022-10-16T11:18:22;7.28;;;2.47;;
15748;SDS011;7976;52.526;13.326;2022-10-16T11:21:02;6.97;;;2.42;;
15748;SDS011;7976;52.526;13.326;2022-10-16T11:23:38;6.55;;;1.98;;
15748;SDS011;7976;52.526;13.326;2022-10-16T11:26:14;7.55;;;1.88;;
15748;SDS011;7976;52.526;13.326;2022-10-16T11:28:48;4.25;;;1.52;;
15748;SDS011;7976;52.526;13.326;2022-10-16T11:31:22;5.80;;;2.08;;
15748;SDS011;7976;52.526;13.326;2022-10-16T11:33:59;6.22;;;2.00;;
15748;SDS011;7976;52.526;13.326;2022-10-16T11:36:39;3.05;;;1.35;;
15748;SDS011;7976;52.526;13.326;2022-10-16T11:39:18;4.65;;;1.65;;
15748;SDS011;7976;52.526;13.326;2022-10-16T11:41:48;4.05;;;1.40;;
15748;SDS011;7976;52.526;13.326;2022-10-16T11:44:34;4.88;;;1.40;;
15748;SDS011;7976;52.526;13.326;2022-10-16T11:47:23;3.95;;;1.55;;
15748;SDS011;7976;52.526;13.326;2022-10-16T11:50:00;4.15;;;1.60;;
15748;SDS011;7976;52.526;13.326;2022-10-16T11:52:38;7.75;;;2.30;;
15748;SDS011;7976;52.526;13.326;2022-10-16T11:55:15;5.45;;;1.75;;
15748;SDS011;7976;52.526;13.326;2022-10-16T11:57:48;5.35;;;1.60;;
15748;SDS011;7976;52.526;13.326;2022-10-16T12:00:20;3.83;;;1.40;;
15748;SDS011;7976;52.526;13.326;2022-10-16T12:02:54;4.55;;;1.30;;
15748;SDS011;7976;52.526;13.326;2022-10-16T12:05:35;6.18;;;1.50;;
15748;SDS011;7976;52.526;13.326;2022-10-16T12:08:23;4.60;;;1.42;;
15748;SDS011;7976;52.526;13.326;2022-10-16T12:10:50;4.40;;;1.70;;
15748;SDS011;7976;52.526;13.326;2022-10-16T12:13:27;6.05;;;2.03;;
15748;SDS011;7976;52.526;13.326;2022-10-16T12:16:04;6.57;;;2.20;;
15748;SDS011;7976;52.526;13.326;2022-10-16T12:18:48;6.95;;;2.20;;
15748;SDS011;7976;52.526;13.326;2022-10-16T12:21:36;4.57;;;1.52;;
15748;SDS011;7976;52.526;13.326;2022-10-16T12:24:05;5.13;;;1.90;;
15748;SDS011;7976;52.526;13.326;2022-10-16T12:26:33;5.30;;;1.70;;
15748;SDS011;7976;52.526;13.326;2022-10-16T12:29:12;5.70;;;1.42;;
15748;SDS011;7976;52.526;13.326;2022-10-16T12:31:54;6.43;;;2.08;;
15748;SDS011;7976;52.526;13.326;2022-10-16T12:34:21;4.70;;;1.50;;
15748;SDS011;7976;52.526;13.326;2022-10-16T12:36:55;5.63;;;1.58;;
15748;SDS011;7976;52.526;13.326;2022-10-16T12:39:36;4.45;;;1.65;;
15748;SDS011;7976;52.526;13.326;2022-10-16T12:42:05;4.55;;;1.50;;
15748;SDS011;7976;52.526;13.326;2022-10-16T12:44:47;3.70;;;1.48;;
15748;SDS011;7976;52.526;13.326;2022-10-16T12:47:19;6.13;;;1.77;;
15748;SDS011;7976;52.526;13.326;2022-10-16T12:49:50;7.15;;;1.90;;
15748;SDS011;7976;52.526;13.326;2022-10-16T12:52:26;3.08;;;1.13;;
15748;SDS011;7976;52.526;13.326;2022-10-16T12:55:04;4.25;;;1.55;;
15748;SDS011;7976;52.526;13.326;2022-10-16T12:57:42;2.88;;;1.20;;
15748;SDS011;7976;52.526;13.326;2022-10-16T13:00:40;6.28;;;1.10;;
15748;SDS011;7976;52.526;13.326;2022-10-16T13:03:20;7.10;;;1.55;;
15748;SDS011;7976;52.526;13.326;2022-10-16T13:06:30;2.67;;;0.90;;
15748;SDS011;7976;52.526;13.326;2022-10-16T13:12:09;12.18;;;6.00;;
15748;SDS011;7976;52.526;13.326;2022-10-16T13:18:10;7.80;;;3.00;;
15748;SDS011;7976;52.526;13.326;2022-10-16T13:20:55;4.20;;;1.50;;
15748;SDS011;7976;52.526;13.326;2022-10-16T13:23:45;8.77;;;3.83;;
15748;SDS011;7976;52.526;13.326;2022-10-16T13:26:24;8.30;;;3.00;;
15748;SDS011;7976;52.526;13.326;2022-10-16T13:29:06;9.60;;;3.15;;
15748;SDS011;7976;52.526;13.326;2022-10-16T13:31:33;7.28;;;2.70;;
15748;SDS011;7976;52.526;13.326;2022-10-16T13:34:00;5.93;;;1.60;;
15748;SDS011;7976;52.526;13.326;2022-10-16T13:36:28;9.65;;;4.90;;
15748;SDS011;7976;52.526;13.326;2022-10-16T13:39:06;5.63;;;1.88;;
15748;SDS011;7976;52.526;13.326;2022-10-16T13:41:39;9.45;;;3.95;;
15748;SDS011;7976;52.526;13.326;2022-10-16T13:44:11;9.02;;;4.00;;
15748;SDS011;7976;52.526;13.326;2022-10-16T13:46:44;15.93;;;8.88;;
15748;SDS011;7976;52.526;13.326;2022-10-16T13:49:12;12.73;;;6.35;;
15748;SDS011;7976;52.526;13.326;2022-10-16T13:51:53;12.43;;;6.57;;
15748;SDS011;7976;52.526;13.326;2022-10-16T13:54:21;13.85;;;6.60;;
15748;SDS011;7976;52.526;13.326;2022-10-16T13:56:49;6.57;;;2.45;;
15748;SDS011;7976;52.526;13.326;2022-10-16T13:59:24;11.30;;;5.82;;
15748;SDS011;7976;52.526;13.326;2022-10-16T14:01:54;7.68;;;2.50;;
15748;SDS011;7976;52.526;13.326;2022-10-16T14:04:24;11.30;;;5.75;;
15748;SDS011;7976;52.526;13.326;2022-10-16T14:06:57;13.95;;;7.43;;
15748;SDS011;7976;52.526;13.326;2022-10-16T14:09:24;8.23;;;3.20;;
15748;SDS011;7976;52.526;13.326;2022-10-16T14:11:55;9.85;;;4.65;;
15748;SDS011;7976;52.526;13.326;2022-10-16T14:14:27;9.88;;;3.92;;
15748;SDS011;7976;52.526;13.326;2022-10-16T14:17:06;9.80;;;3.85;;
15748;SDS011;7976;52.526;13.326;2022-10-16T14:19:40;9.25;;;4.03;;
15748;SDS011;7976;52.526;13.326;2022-10-16T14:22:26;8.02;;;3.20;;
15748;SDS011;7976;52.526;13.326;2022-10-16T14:24:57;10.77;;;5.07;;
15748;SDS011;7976;52.526;13.326;2022-10-16T14:27:26;13.15;;;7.35;;
15748;SDS011;7976;52.526;13.326;2022-10-16T14:30:12;10.75;;;5.43;;
15748;SDS011;7976;52.526;13.326;2022-10-16T14:32:52;13.73;;;6.97;;
15748;SDS011;7976;52.526;13.326;2022-10-16T14:35:23;7.55;;;3.00;;
15748;SDS011;7976;52.526;13.326;2022-10-16T14:37:53;11.32;;;5.47;;
15748;SDS011;7976;52.526;13.326;2022-10-16T14:40:23;10.10;;;4.57;;
15748;SDS011;7976;52.526;13.326;2022-10-16T14:42:52;11.50;;;4.90;;
15748;SDS011;7976;52.526;13.326;2022-10-16T14:45:23;8.35;;;3.20;;
15748;SDS011;7976;52.526;13.326;2022-10-16T14:47:54;9.60;;;4.57;;
15748;SDS011;7976;52.526;13.326;2022-10-16T14:50:24;12.40;;;4.60;;
15748;SDS011;7976;52.526;13.326;2022-10-16T14:52:51;10.93;;;5.82;;
15748;SDS011;7976;52.526;13.326;2022-10-16T14:55:18;8.85;;;4.18;;
15748;SDS011;7976;52.526;13.326;2022-10-16T14:57:45;7.88;;;3.03;;
15748;SDS011;7976;52.526;13.326;2022-10-16T15:00:15;9.68;;;3.40;;
15748;SDS011;7976;52.526;13.326;2022-10-16T15:02:47;13.43;;;6.40;;
15748;SDS011;7976;52.526;13.326;2022-10-16T15:05:18;8.75;;;3.78;;
15748;SDS011;7976;52.526;13.326;2022-10-16T15:07:48;8.85;;;3.15;;
15748;SDS011;7976;52.526;13.326;2022-10-16T15:10:15;15.45;;;7.68;;
15748;SDS011;7976;52.526;13.326;2022-10-16T15:12:44;13.40;;;6.13;;
15748;SDS011;7976;52.526;13.326;2022-10-16T15:15:15;12.38;;;5.28;;
15748;SDS011;7976;52.526;13.326;2022-10-16T15:17:57;8.43;;;3.28;;
15748;SDS011;7976;52.526;13.326;2022-10-16T15:20:26;11.95;;;5.82;;
15748;SDS011;7976;52.526;13.326;2022-10-16T15:22:55;9.95;;;4.95;;